sensor_id;sensor_type;location;lat;lon;timestamp;temperature;humidity
75161;DHT22;63738;50.096;8.716;2022-12-07T00:01:46;5.00;83.10
75161;DHT22;63738;50.096;8.716;2022-12-07T00:04:14;4.90;83.20
75161;DHT22;63738;50.096;8.716;2022-12-07T00:06:50;5.00;83.40
75161;DHT22;63738;50.096;8.716;2022-12-07T00:09:16;5.10;83.00
75161;DHT22;63738;50.096;8.716;2022-12-07T00:11:42;5.10;83.10
75161;DHT22;63738;50.096;8.716;2022-12-07T00:14:11;5.10;83.10
75161;DHT22;63738;50.096;8.716;2022-12-07T00:16:37;5.20;83.00
75161;DHT22;63738;50.096;8.716;2022-12-07T00:19:03;5.10;83.00
75161;DHT22;63738;50.096;8.716;2022-12-07T00:21:32;4.90;83.40
75161;DHT22;63738;50.096;8.716;2022-12-07T00:23:58;4.80;83.80
75161;DHT22;63738;50.096;8.716;2022-12-07T00:26:29;4.80;83.90
75161;DHT22;63738;50.096;8.716;2022-12-07T00:29:00;4.80;83.80
75161;DHT22;63738;50.096;8.716;2022-12-07T00:31:28;4.70;84.10
75161;DHT22;63738;50.096;8.716;2022-12-07T00:33:55;4.70;84.20
75161;DHT22;63738;50.096;8.716;2022-12-07T00:36:22;4.80;84.10
75161;DHT22;63738;50.096;8.716;2022-12-07T00:38:48;4.70;84.30
75161;DHT22;63738;50.096;8.716;2022-12-07T00:41:16;4.80;84.20
75161;DHT22;63738;50.096;8.716;2022-12-07T00:43:43;4.80;84.00
75161;DHT22;63738;50.096;8.716;2022-12-07T00:46:10;4.90;83.90
75161;DHT22;63738;50.096;8.716;2022-12-07T00:48:36;4.70;83.90
75161;DHT22;63738;50.096;8.716;2022-12-07T00:51:03;4.80;84.00
75161;DHT22;63738;50.096;8.716;2022-12-07T00:53:28;4.80;83.80
75161;DHT22;63738;50.096;8.716;2022-12-07T00:55:54;4.70;84.10
75161;DHT22;63738;50.096;8.716;2022-12-07T00:58:22;4.80;84.20
75161;DHT22;63738;50.096;8.716;2022-12-07T01:00:48;4.70;84.30
75161;DHT22;63738;50.096;8.716;2022-12-07T01:03:15;4.70;84.20
75161;DHT22;63738;50.096;8.716;2022-12-07T01:05:50;4.70;84.40
75161;DHT22;63738;50.096;8.716;2022-12-07T01:08:16;4.80;84.30
75161;DHT22;63738;50.096;8.716;2022-12-07T01:10:41;4.90;84.00
75161;DHT22;63738;50.096;8.716;2022-12-07T01:13:07;4.90;84.00
75161;DHT22;63738;50.096;8.716;2022-12-07T01:15:32;5.00;83.80
75161;DHT22;63738;50.096;8.716;2022-12-07T01:17:58;4.80;83.90
75161;DHT22;63738;50.096;8.716;2022-12-07T01:20:23;4.70;84.20
75161;DHT22;63738;50.096;8.716;2022-12-07T01:22:49;4.80;84.30
75161;DHT22;63738;50.096;8.716;2022-12-07T01:25:15;4.80;84.30
75161;DHT22;63738;50.096;8.716;2022-12-07T01:27:41;4.70;84.40
75161;DHT22;63738;50.096;8.716;2022-12-07T01:30:07;4.70;84.70
75161;DHT22;63738;50.096;8.716;2022-12-07T01:32:34;4.70;84.50
75161;DHT22;63738;50.096;8.716;2022-12-07T01:34:59;4.60;84.60
75161;DHT22;63738;50.096;8.716;2022-12-07T01:37:25;4.40;84.80
75161;DHT22;63738;50.096;8.716;2022-12-07T01:39:51;4.40;85.20
75161;DHT22;63738;50.096;8.716;2022-12-07T01:42:18;4.30;85.30
75161;DHT22;63738;50.096;8.716;2022-12-07T01:47:47;4.40;85.20
75161;DHT22;63738;50.096;8.716;2022-12-07T01:50:13;4.50;85.00
75161;DHT22;63738;50.096;8.716;2022-12-07T01:52:40;4.50;84.90
75161;DHT22;63738;50.096;8.716;2022-12-07T01:55:09;4.50;84.80
75161;DHT22;63738;50.096;8.716;2022-12-07T01:57:41;4.70;84.70
75161;DHT22;63738;50.096;8.716;2022-12-07T02:00:10;4.50;84.80
75161;DHT22;63738;50.096;8.716;2022-12-07T02:05:28;4.50;84.80
75161;DHT22;63738;50.096;8.716;2022-12-07T02:07:56;4.60;84.90
75161;DHT22;63738;50.096;8.716;2022-12-07T02:10:24;4.60;84.90
75161;DHT22;63738;50.096;8.716;2022-12-07T02:13:19;4.70;84.80
75161;DHT22;63738;50.096;8.716;2022-12-07T02:16:08;4.60;84.60
75161;DHT22;63738;50.096;8.716;2022-12-07T02:22:01;4.90;84.50
75161;DHT22;63738;50.096;8.716;2022-12-07T02:27:46;4.60;84.90
75161;DHT22;63738;50.096;8.716;2022-12-07T02:30:19;4.50;85.20
75161;DHT22;63738;50.096;8.716;2022-12-07T02:33:15;4.50;85.20
75161;DHT22;63738;50.096;8.716;2022-12-07T02:35:53;4.50;85.20
75161;DHT22;63738;50.096;8.716;2022-12-07T02:38:55;4.40;85.30
75161;DHT22;63738;50.096;8.716;2022-12-07T02:41:36;4.60;85.00
75161;DHT22;63738;50.096;8.716;2022-12-07T02:44:07;4.50;85.00
75161;DHT22;63738;50.096;8.716;2022-12-07T02:46:42;4.40;85.20
75161;DHT22;63738;50.096;8.716;2022-12-07T02:49:12;4.50;84.90
75161;DHT22;63738;50.096;8.716;2022-12-07T02:51:40;4.40;85.10
75161;DHT22;63738;50.096;8.716;2022-12-07T02:54:14;4.40;85.10
75161;DHT22;63738;50.096;8.716;2022-12-07T03:10:27;4.70;84.60
75161;DHT22;63738;50.096;8.716;2022-12-07T03:13:50;4.80;84.70
75161;DHT22;63738;50.096;8.716;2022-12-07T03:21:17;4.60;84.80
75161;DHT22;63738;50.096;8.716;2022-12-07T03:23:46;4.90;84.50
75161;DHT22;63738;50.096;8.716;2022-12-07T03:26:15;4.90;84.30
75161;DHT22;63738;50.096;8.716;2022-12-07T03:28:50;5.00;84.10
75161;DHT22;63738;50.096;8.716;2022-12-07T03:31:26;5.00;83.90
75161;DHT22;63738;50.096;8.716;2022-12-07T03:34:02;5.10;83.80
75161;DHT22;63738;50.096;8.716;2022-12-07T03:36:40;4.90;83.90
75161;DHT22;63738;50.096;8.716;2022-12-07T03:42:12;4.70;84.50
75161;DHT22;63738;50.096;8.716;2022-12-07T03:44:38;4.60;84.60
75161;DHT22;63738;50.096;8.716;2022-12-07T03:47:21;4.70;84.60
75161;DHT22;63738;50.096;8.716;2022-12-07T03:49:57;4.70;84.40
75161;DHT22;63738;50.096;8.716;2022-12-07T03:55:00;4.50;84.70
75161;DHT22;63738;50.096;8.716;2022-12-07T03:57:28;4.50;84.90
75161;DHT22;63738;50.096;8.716;2022-12-07T03:59:56;4.50;85.10
75161;DHT22;63738;50.096;8.716;2022-12-07T04:02:24;4.60;85.00
75161;DHT22;63738;50.096;8.716;2022-12-07T04:04:50;4.70;84.80
75161;DHT22;63738;50.096;8.716;2022-12-07T04:07:16;4.60;84.70
75161;DHT22;63738;50.096;8.716;2022-12-07T04:09:42;4.60;84.90
75161;DHT22;63738;50.096;8.716;2022-12-07T04:12:07;4.70;84.90
75161;DHT22;63738;50.096;8.716;2022-12-07T04:14:33;4.60;84.80
75161;DHT22;63738;50.096;8.716;2022-12-07T04:16:59;4.50;84.90
75161;DHT22;63738;50.096;8.716;2022-12-07T04:19:28;4.50;85.10
75161;DHT22;63738;50.096;8.716;2022-12-07T04:21:55;4.60;85.00
75161;DHT22;63738;50.096;8.716;2022-12-07T04:24:22;4.40;84.80
75161;DHT22;63738;50.096;8.716;2022-12-07T04:26:48;4.50;85.20
75161;DHT22;63738;50.096;8.716;2022-12-07T04:29:14;4.60;85.00
75161;DHT22;63738;50.096;8.716;2022-12-07T04:31:40;4.70;84.80
75161;DHT22;63738;50.096;8.716;2022-12-07T04:34:06;4.80;84.70
75161;DHT22;63738;50.096;8.716;2022-12-07T04:36:35;4.80;84.70
75161;DHT22;63738;50.096;8.716;2022-12-07T04:39:01;4.90;84.50
75161;DHT22;63738;50.096;8.716;2022-12-07T04:41:27;4.80;84.40
75161;DHT22;63738;50.096;8.716;2022-12-07T04:46:21;4.80;84.60
75161;DHT22;63738;50.096;8.716;2022-12-07T04:48:46;4.90;84.30
75161;DHT22;63738;50.096;8.716;2022-12-07T04:51:13;4.80;84.40
75161;DHT22;63738;50.096;8.716;2022-12-07T04:53:38;4.90;84.30
75161;DHT22;63738;50.096;8.716;2022-12-07T04:56:04;4.80;84.30
75161;DHT22;63738;50.096;8.716;2022-12-07T04:58:30;4.70;84.70
75161;DHT22;63738;50.096;8.716;2022-12-07T05:00:55;4.70;84.70
75161;DHT22;63738;50.096;8.716;2022-12-07T05:03:21;4.70;84.80
75161;DHT22;63738;50.096;8.716;2022-12-07T05:05:49;4.70;84.80
75161;DHT22;63738;50.096;8.716;2022-12-07T05:08:15;4.70;84.70
75161;DHT22;63738;50.096;8.716;2022-12-07T05:10:41;4.70;84.90
75161;DHT22;63738;50.096;8.716;2022-12-07T05:13:06;4.80;84.70
75161;DHT22;63738;50.096;8.716;2022-12-07T05:15:32;4.90;84.40
75161;DHT22;63738;50.096;8.716;2022-12-07T05:17:57;4.80;84.60
75161;DHT22;63738;50.096;8.716;2022-12-07T05:20:24;4.80;84.60
75161;DHT22;63738;50.096;8.716;2022-12-07T05:22:50;4.60;84.90
75161;DHT22;63738;50.096;8.716;2022-12-07T05:25:16;4.60;85.10
75161;DHT22;63738;50.096;8.716;2022-12-07T05:27:41;4.60;85.10
75161;DHT22;63738;50.096;8.716;2022-12-07T05:30:07;4.60;85.30
75161;DHT22;63738;50.096;8.716;2022-12-07T05:32:33;4.60;85.40
75161;DHT22;63738;50.096;8.716;2022-12-07T05:35:00;4.60;85.30
75161;DHT22;63738;50.096;8.716;2022-12-07T05:37:26;4.80;85.20
75161;DHT22;63738;50.096;8.716;2022-12-07T05:39:53;4.80;85.00
75161;DHT22;63738;50.096;8.716;2022-12-07T05:42:18;5.00;84.80
75161;DHT22;63738;50.096;8.716;2022-12-07T05:44:45;4.90;84.80
75161;DHT22;63738;50.096;8.716;2022-12-07T05:47:12;5.00;84.80
75161;DHT22;63738;50.096;8.716;2022-12-07T05:49:38;5.00;84.80
75161;DHT22;63738;50.096;8.716;2022-12-07T05:52:05;5.00;84.70
75161;DHT22;63738;50.096;8.716;2022-12-07T05:54:31;5.00;84.80
75161;DHT22;63738;50.096;8.716;2022-12-07T05:56:57;4.90;84.90
75161;DHT22;63738;50.096;8.716;2022-12-07T05:59:24;5.10;84.80
75161;DHT22;63738;50.096;8.716;2022-12-07T06:02:01;5.20;84.80
75161;DHT22;63738;50.096;8.716;2022-12-07T06:04:31;5.10;84.70
75161;DHT22;63738;50.096;8.716;2022-12-07T06:06:57;5.10;84.80
75161;DHT22;63738;50.096;8.716;2022-12-07T06:09:25;5.30;84.50
75161;DHT22;63738;50.096;8.716;2022-12-07T06:11:50;5.40;84.50
75161;DHT22;63738;50.096;8.716;2022-12-07T06:14:35;5.40;84.30
75161;DHT22;63738;50.096;8.716;2022-12-07T06:17:01;5.50;84.10
75161;DHT22;63738;50.096;8.716;2022-12-07T06:19:27;5.40;84.10
75161;DHT22;63738;50.096;8.716;2022-12-07T06:21:53;5.30;84.30
75161;DHT22;63738;50.096;8.716;2022-12-07T06:24:19;5.40;84.20
75161;DHT22;63738;50.096;8.716;2022-12-07T06:26:45;5.20;84.20
75161;DHT22;63738;50.096;8.716;2022-12-07T06:29:11;5.10;84.60
75161;DHT22;63738;50.096;8.716;2022-12-07T06:31:37;5.00;84.80
75161;DHT22;63738;50.096;8.716;2022-12-07T06:34:21;4.90;85.00
75161;DHT22;63738;50.096;8.716;2022-12-07T06:36:50;4.90;85.00
75161;DHT22;63738;50.096;8.716;2022-12-07T06:39:21;4.90;85.20
75161;DHT22;63738;50.096;8.716;2022-12-07T06:41:48;4.80;85.20
75161;DHT22;63738;50.096;8.716;2022-12-07T06:44:14;4.90;85.20
75161;DHT22;63738;50.096;8.716;2022-12-07T06:46:39;4.90;85.20
75161;DHT22;63738;50.096;8.716;2022-12-07T06:49:05;5.00;85.00
75161;DHT22;63738;50.096;8.716;2022-12-07T06:51:32;4.90;85.30
75161;DHT22;63738;50.096;8.716;2022-12-07T06:53:58;4.80;85.40
75161;DHT22;63738;50.096;8.716;2022-12-07T06:56:24;4.90;85.30
75161;DHT22;63738;50.096;8.716;2022-12-07T06:58:50;4.90;85.30
75161;DHT22;63738;50.096;8.716;2022-12-07T07:01:17;4.90;85.20
75161;DHT22;63738;50.096;8.716;2022-12-07T07:03:44;5.00;85.20
75161;DHT22;63738;50.096;8.716;2022-12-07T07:06:10;5.20;84.90
75161;DHT22;63738;50.096;8.716;2022-12-07T07:08:37;5.20;84.80
75161;DHT22;63738;50.096;8.716;2022-12-07T07:11:03;5.30;84.60
75161;DHT22;63738;50.096;8.716;2022-12-07T07:13:29;5.20;84.60
75161;DHT22;63738;50.096;8.716;2022-12-07T07:15:55;5.30;84.70
75161;DHT22;63738;50.096;8.716;2022-12-07T07:18:21;5.30;84.60
75161;DHT22;63738;50.096;8.716;2022-12-07T07:20:46;5.40;84.50
75161;DHT22;63738;50.096;8.716;2022-12-07T07:23:12;5.40;84.40
75161;DHT22;63738;50.096;8.716;2022-12-07T07:25:37;5.40;84.30
75161;DHT22;63738;50.096;8.716;2022-12-07T07:28:03;5.40;84.40
75161;DHT22;63738;50.096;8.716;2022-12-07T07:30:29;5.20;84.70
75161;DHT22;63738;50.096;8.716;2022-12-07T07:32:58;5.40;84.60
75161;DHT22;63738;50.096;8.716;2022-12-07T07:35:25;5.50;84.40
75161;DHT22;63738;50.096;8.716;2022-12-07T07:37:51;5.70;84.20
75161;DHT22;63738;50.096;8.716;2022-12-07T07:40:17;5.70;83.90
75161;DHT22;63738;50.096;8.716;2022-12-07T07:42:42;5.60;84.00
75161;DHT22;63738;50.096;8.716;2022-12-07T07:45:08;5.70;83.90
75161;DHT22;63738;50.096;8.716;2022-12-07T07:47:34;5.40;83.90
75161;DHT22;63738;50.096;8.716;2022-12-07T07:50:00;5.40;84.40
75161;DHT22;63738;50.096;8.716;2022-12-07T07:52:26;5.40;84.30
75161;DHT22;63738;50.096;8.716;2022-12-07T07:54:51;5.60;84.20
75161;DHT22;63738;50.096;8.716;2022-12-07T07:57:17;5.40;84.10
75161;DHT22;63738;50.096;8.716;2022-12-07T07:59:43;5.40;84.10
75161;DHT22;63738;50.096;8.716;2022-12-07T08:02:17;5.40;84.40
75161;DHT22;63738;50.096;8.716;2022-12-07T08:04:44;5.40;84.30
75161;DHT22;63738;50.096;8.716;2022-12-07T08:07:10;5.40;84.60
75161;DHT22;63738;50.096;8.716;2022-12-07T08:09:36;5.30;84.60
75161;DHT22;63738;50.096;8.716;2022-12-07T08:12:01;5.30;84.70
75161;DHT22;63738;50.096;8.716;2022-12-07T08:14:27;5.40;84.50
75161;DHT22;63738;50.096;8.716;2022-12-07T08:16:54;5.30;84.60
75161;DHT22;63738;50.096;8.716;2022-12-07T08:19:20;5.30;84.60
75161;DHT22;63738;50.096;8.716;2022-12-07T08:21:46;5.40;84.40
75161;DHT22;63738;50.096;8.716;2022-12-07T08:24:11;5.50;84.30
75161;DHT22;63738;50.096;8.716;2022-12-07T08:26:37;5.60;84.20
75161;DHT22;63738;50.096;8.716;2022-12-07T08:29:03;5.60;84.00
75161;DHT22;63738;50.096;8.716;2022-12-07T08:31:28;5.80;84.10
75161;DHT22;63738;50.096;8.716;2022-12-07T08:33:54;6.00;83.80
75161;DHT22;63738;50.096;8.716;2022-12-07T08:36:20;6.20;83.50
75161;DHT22;63738;50.096;8.716;2022-12-07T08:38:47;6.40;82.80
75161;DHT22;63738;50.096;8.716;2022-12-07T08:41:12;6.40;82.70
75161;DHT22;63738;50.096;8.716;2022-12-07T08:43:38;6.60;82.80
75161;DHT22;63738;50.096;8.716;2022-12-07T08:49:13;6.70;82.10
75161;DHT22;63738;50.096;8.716;2022-12-07T08:51:41;6.60;82.30
75161;DHT22;63738;50.096;8.716;2022-12-07T08:54:11;6.70;82.20
75161;DHT22;63738;50.096;8.716;2022-12-07T08:56:38;6.70;82.20
75161;DHT22;63738;50.096;8.716;2022-12-07T08:59:04;7.00;81.90
75161;DHT22;63738;50.096;8.716;2022-12-07T09:01:30;7.40;81.30
75161;DHT22;63738;50.096;8.716;2022-12-07T09:03:56;7.60;80.70
75161;DHT22;63738;50.096;8.716;2022-12-07T09:06:21;7.80;80.20
75161;DHT22;63738;50.096;8.716;2022-12-07T09:08:50;7.50;80.20
75161;DHT22;63738;50.096;8.716;2022-12-07T09:11:16;7.80;80.80
75161;DHT22;63738;50.096;8.716;2022-12-07T09:13:42;7.60;80.20
75161;DHT22;63738;50.096;8.716;2022-12-07T09:16:07;7.90;80.30
75161;DHT22;63738;50.096;8.716;2022-12-07T09:18:33;8.40;79.60
75161;DHT22;63738;50.096;8.716;2022-12-07T09:20:59;8.60;79.40
75161;DHT22;63738;50.096;8.716;2022-12-07T09:23:25;8.00;79.20
75161;DHT22;63738;50.096;8.716;2022-12-07T09:25:50;8.20;79.50
75161;DHT22;63738;50.096;8.716;2022-12-07T09:28:16;8.10;78.90
75161;DHT22;63738;50.096;8.716;2022-12-07T09:30:48;8.40;79.40
75161;DHT22;63738;50.096;8.716;2022-12-07T09:33:14;8.70;78.80
75161;DHT22;63738;50.096;8.716;2022-12-07T09:35:49;10.10;77.00
75161;DHT22;63738;50.096;8.716;2022-12-07T09:38:15;13.10;69.70
75161;DHT22;63738;50.096;8.716;2022-12-07T09:40:42;14.30;67.50
75161;DHT22;63738;50.096;8.716;2022-12-07T09:43:23;15.30;65.50
75161;DHT22;63738;50.096;8.716;2022-12-07T09:45:52;16.00;59.70
75161;DHT22;63738;50.096;8.716;2022-12-07T09:48:24;15.60;60.30
75161;DHT22;63738;50.096;8.716;2022-12-07T09:50:52;15.00;64.30
75161;DHT22;63738;50.096;8.716;2022-12-07T09:53:25;14.80;64.40
75161;DHT22;63738;50.096;8.716;2022-12-07T09:55:52;14.50;64.50
75161;DHT22;63738;50.096;8.716;2022-12-07T09:58:22;14.40;63.70
75161;DHT22;63738;50.096;8.716;2022-12-07T10:01:05;13.90;64.20
75161;DHT22;63738;50.096;8.716;2022-12-07T10:03:37;12.60;65.80
75161;DHT22;63738;50.096;8.716;2022-12-07T10:06:05;14.40;66.50
75161;DHT22;63738;50.096;8.716;2022-12-07T10:08:31;17.10;59.60
75161;DHT22;63738;50.096;8.716;2022-12-07T10:10:57;18.40;54.30
75161;DHT22;63738;50.096;8.716;2022-12-07T10:16:03;21.20;50.80
75161;DHT22;63738;50.096;8.716;2022-12-07T10:18:35;22.90;47.60
75161;DHT22;63738;50.096;8.716;2022-12-07T10:23:35;24.50;45.20
75161;DHT22;63738;50.096;8.716;2022-12-07T10:26:20;22.80;47.00
75161;DHT22;63738;50.096;8.716;2022-12-07T10:28:47;22.50;47.90
75161;DHT22;63738;50.096;8.716;2022-12-07T10:31:19;22.50;45.80
75161;DHT22;63738;50.096;8.716;2022-12-07T10:33:57;18.40;52.40
75161;DHT22;63738;50.096;8.716;2022-12-07T10:36:37;16.10;56.20
75161;DHT22;63738;50.096;8.716;2022-12-07T10:39:14;14.40;61.50
75161;DHT22;63738;50.096;8.716;2022-12-07T10:42:00;13.20;64.00
75161;DHT22;63738;50.096;8.716;2022-12-07T10:44:29;12.60;66.00
75161;DHT22;63738;50.096;8.716;2022-12-07T10:55:16;9.70;70.00
75161;DHT22;63738;50.096;8.716;2022-12-07T11:01:11;9.50;71.00
75161;DHT22;63738;50.096;8.716;2022-12-07T11:11:43;9.80;69.40
75161;DHT22;63738;50.096;8.716;2022-12-07T11:14:44;10.00;68.70
75161;DHT22;63738;50.096;8.716;2022-12-07T11:17:38;10.10;68.80
75161;DHT22;63738;50.096;8.716;2022-12-07T11:20:23;9.90;68.40
75161;DHT22;63738;50.096;8.716;2022-12-07T11:26:18;9.40;70.20
75161;DHT22;63738;50.096;8.716;2022-12-07T11:34:24;9.10;71.00
75161;DHT22;63738;50.096;8.716;2022-12-07T11:36:56;9.00;71.20
75161;DHT22;63738;50.096;8.716;2022-12-07T11:41:52;8.80;71.90
75161;DHT22;63738;50.096;8.716;2022-12-07T11:44:59;8.80;71.80
75161;DHT22;63738;50.096;8.716;2022-12-07T11:47:47;8.80;72.20
75161;DHT22;63738;50.096;8.716;2022-12-07T11:53:17;8.80;71.70
75161;DHT22;63738;50.096;8.716;2022-12-07T11:58:43;8.60;72.30
75161;DHT22;63738;50.096;8.716;2022-12-07T12:03:43;9.10;71.50
75161;DHT22;63738;50.096;8.716;2022-12-07T12:06:09;12.00;65.80
75161;DHT22;63738;50.096;8.716;2022-12-07T12:08:42;11.60;65.10
75161;DHT22;63738;50.096;8.716;2022-12-07T12:11:21;12.60;63.10
75161;DHT22;63738;50.096;8.716;2022-12-07T12:21:56;10.30;67.20
75161;DHT22;63738;50.096;8.716;2022-12-07T12:24:26;9.80;66.90
75161;DHT22;63738;50.096;8.716;2022-12-07T12:27:23;9.50;68.20
75161;DHT22;63738;50.096;8.716;2022-12-07T12:29:56;9.30;69.10
75161;DHT22;63738;50.096;8.716;2022-12-07T12:32:39;9.20;68.80
75161;DHT22;63738;50.096;8.716;2022-12-07T12:35:31;9.10;69.50
75161;DHT22;63738;50.096;8.716;2022-12-07T12:40:55;9.20;70.40
75161;DHT22;63738;50.096;8.716;2022-12-07T12:54:28;9.90;68.90
75161;DHT22;63738;50.096;8.716;2022-12-07T13:02:37;9.50;70.30
75161;DHT22;63738;50.096;8.716;2022-12-07T13:13:30;8.80;71.80
75161;DHT22;63738;50.096;8.716;2022-12-07T13:18:36;9.10;72.20
75161;DHT22;63738;50.096;8.716;2022-12-07T13:26:16;9.30;71.50
75161;DHT22;63738;50.096;8.716;2022-12-07T13:31:54;9.30;71.10
75161;DHT22;63738;50.096;8.716;2022-12-07T13:34:40;9.10;71.30
75161;DHT22;63738;50.096;8.716;2022-12-07T13:37:28;8.70;71.30
75161;DHT22;63738;50.096;8.716;2022-12-07T13:39:59;8.40;72.40
75161;DHT22;63738;50.096;8.716;2022-12-07T13:44:55;8.30;72.60
75161;DHT22;63738;50.096;8.716;2022-12-07T13:49:53;8.10;72.90
75161;DHT22;63738;50.096;8.716;2022-12-07T13:52:28;8.00;73.50
75161;DHT22;63738;50.096;8.716;2022-12-07T13:57:34;8.10;74.20
75161;DHT22;63738;50.096;8.716;2022-12-07T14:00:01;8.30;74.20
75161;DHT22;63738;50.096;8.716;2022-12-07T14:02:33;8.30;73.70
75161;DHT22;63738;50.096;8.716;2022-12-07T14:05:13;8.40;73.60
75161;DHT22;63738;50.096;8.716;2022-12-07T14:07:59;8.40;72.40
75161;DHT22;63738;50.096;8.716;2022-12-07T14:12:59;8.30;73.00
75161;DHT22;63738;50.096;8.716;2022-12-07T14:15:34;8.30;73.10
75161;DHT22;63738;50.096;8.716;2022-12-07T14:18:02;8.30;73.60
75161;DHT22;63738;50.096;8.716;2022-12-07T14:22:58;8.10;74.00
75161;DHT22;63738;50.096;8.716;2022-12-07T14:25:26;8.00;74.10
75161;DHT22;63738;50.096;8.716;2022-12-07T14:28:01;7.90;74.50
75161;DHT22;63738;50.096;8.716;2022-12-07T14:30:29;7.90;74.30
75161;DHT22;63738;50.096;8.716;2022-12-07T14:33:04;7.60;75.00
75161;DHT22;63738;50.096;8.716;2022-12-07T14:35:32;7.50;75.40
75161;DHT22;63738;50.096;8.716;2022-12-07T14:37:58;7.60;75.50
75161;DHT22;63738;50.096;8.716;2022-12-07T14:40:25;7.60;75.30
75161;DHT22;63738;50.096;8.716;2022-12-07T14:43:12;7.60;75.60
75161;DHT22;63738;50.096;8.716;2022-12-07T14:45:39;7.50;75.80
75161;DHT22;63738;50.096;8.716;2022-12-07T14:48:07;7.40;76.10
75161;DHT22;63738;50.096;8.716;2022-12-07T14:50:38;7.30;76.60
75161;DHT22;63738;50.096;8.716;2022-12-07T14:53:12;7.30;76.90
75161;DHT22;63738;50.096;8.716;2022-12-07T14:55:38;7.10;77.10
75161;DHT22;63738;50.096;8.716;2022-12-07T14:58:04;7.20;77.40
75161;DHT22;63738;50.096;8.716;2022-12-07T15:00:30;7.10;78.10
75161;DHT22;63738;50.096;8.716;2022-12-07T15:02:56;7.20;78.50
75161;DHT22;63738;50.096;8.716;2022-12-07T15:05:22;7.20;78.90
75161;DHT22;63738;50.096;8.716;2022-12-07T15:07:48;7.30;79.00
75161;DHT22;63738;50.096;8.716;2022-12-07T15:10:17;7.40;79.20
75161;DHT22;63738;50.096;8.716;2022-12-07T15:12:44;7.50;79.60
75161;DHT22;63738;50.096;8.716;2022-12-07T15:15:10;7.50;79.80
75161;DHT22;63738;50.096;8.716;2022-12-07T15:17:35;7.40;80.20
75161;DHT22;63738;50.096;8.716;2022-12-07T15:20:01;7.40;80.60
75161;DHT22;63738;50.096;8.716;2022-12-07T15:22:27;7.10;80.60
75161;DHT22;63738;50.096;8.716;2022-12-07T15:24:53;6.90;81.00
75161;DHT22;63738;50.096;8.716;2022-12-07T15:27:18;6.70;81.20
75161;DHT22;63738;50.096;8.716;2022-12-07T15:29:44;6.70;81.80
75161;DHT22;63738;50.096;8.716;2022-12-07T15:32:09;6.60;81.90
75161;DHT22;63738;50.096;8.716;2022-12-07T15:34:35;6.50;82.20
75161;DHT22;63738;50.096;8.716;2022-12-07T15:37:00;6.50;82.10
75161;DHT22;63738;50.096;8.716;2022-12-07T15:39:29;6.40;82.10
75161;DHT22;63738;50.096;8.716;2022-12-07T15:41:54;6.50;81.90
75161;DHT22;63738;50.096;8.716;2022-12-07T15:44:20;6.50;82.00
75161;DHT22;63738;50.096;8.716;2022-12-07T15:47:04;6.50;82.10
75161;DHT22;63738;50.096;8.716;2022-12-07T15:49:30;6.40;82.10
75161;DHT22;63738;50.096;8.716;2022-12-07T15:51:56;6.50;82.50
75161;DHT22;63738;50.096;8.716;2022-12-07T15:54:27;6.40;82.30
75161;DHT22;63738;50.096;8.716;2022-12-07T15:56:53;6.40;82.40
75161;DHT22;63738;50.096;8.716;2022-12-07T15:59:19;6.20;83.10
75161;DHT22;63738;50.096;8.716;2022-12-07T16:01:44;6.10;83.00
75161;DHT22;63738;50.096;8.716;2022-12-07T16:04:10;6.20;83.10
75161;DHT22;63738;50.096;8.716;2022-12-07T16:06:37;6.50;82.30
75161;DHT22;63738;50.096;8.716;2022-12-07T16:09:03;6.60;82.60
75161;DHT22;63738;50.096;8.716;2022-12-07T16:11:29;6.60;82.50
75161;DHT22;63738;50.096;8.716;2022-12-07T16:13:55;6.60;82.20
75161;DHT22;63738;50.096;8.716;2022-12-07T16:16:21;6.60;82.30
75161;DHT22;63738;50.096;8.716;2022-12-07T16:18:48;6.60;82.10
75161;DHT22;63738;50.096;8.716;2022-12-07T16:21:15;6.50;82.30
75161;DHT22;63738;50.096;8.716;2022-12-07T16:23:41;6.60;82.40
75161;DHT22;63738;50.096;8.716;2022-12-07T16:26:19;6.70;82.10
75161;DHT22;63738;50.096;8.716;2022-12-07T16:28:45;6.70;82.10
75161;DHT22;63738;50.096;8.716;2022-12-07T16:31:13;6.60;82.10
75161;DHT22;63738;50.096;8.716;2022-12-07T16:33:40;6.70;82.20
75161;DHT22;63738;50.096;8.716;2022-12-07T16:36:08;6.60;82.10
75161;DHT22;63738;50.096;8.716;2022-12-07T16:38:35;6.30;82.50
75161;DHT22;63738;50.096;8.716;2022-12-07T16:41:00;6.30;82.80
75161;DHT22;63738;50.096;8.716;2022-12-07T16:43:26;6.40;82.70
75161;DHT22;63738;50.096;8.716;2022-12-07T16:45:52;6.30;82.30
75161;DHT22;63738;50.096;8.716;2022-12-07T16:48:18;6.10;82.80
75161;DHT22;63738;50.096;8.716;2022-12-07T16:50:44;6.00;83.10
75161;DHT22;63738;50.096;8.716;2022-12-07T16:53:10;6.00;83.20
75161;DHT22;63738;50.096;8.716;2022-12-07T16:55:41;6.00;83.10
75161;DHT22;63738;50.096;8.716;2022-12-07T16:58:07;6.00;83.10
75161;DHT22;63738;50.096;8.716;2022-12-07T17:00:33;6.10;82.90
75161;DHT22;63738;50.096;8.716;2022-12-07T17:02:59;6.30;82.30
75161;DHT22;63738;50.096;8.716;2022-12-07T17:05:27;6.10;82.10
75161;DHT22;63738;50.096;8.716;2022-12-07T17:07:56;6.00;82.60
75161;DHT22;63738;50.096;8.716;2022-12-07T17:10:23;6.10;82.50
75161;DHT22;63738;50.096;8.716;2022-12-07T17:12:49;6.00;82.80
75161;DHT22;63738;50.096;8.716;2022-12-07T17:15:14;6.10;82.90
75161;DHT22;63738;50.096;8.716;2022-12-07T17:17:54;6.10;82.70
75161;DHT22;63738;50.096;8.716;2022-12-07T17:20:20;6.10;82.70
75161;DHT22;63738;50.096;8.716;2022-12-07T17:22:47;6.10;82.90
75161;DHT22;63738;50.096;8.716;2022-12-07T17:25:12;6.00;83.00
75161;DHT22;63738;50.096;8.716;2022-12-07T17:27:39;6.20;82.70
75161;DHT22;63738;50.096;8.716;2022-12-07T17:30:06;6.10;82.70
75161;DHT22;63738;50.096;8.716;2022-12-07T17:32:32;6.10;82.70
75161;DHT22;63738;50.096;8.716;2022-12-07T17:34:58;6.10;82.40
75161;DHT22;63738;50.096;8.716;2022-12-07T17:37:23;6.00;82.40
75161;DHT22;63738;50.096;8.716;2022-12-07T17:39:49;6.00;82.50
75161;DHT22;63738;50.096;8.716;2022-12-07T17:42:15;5.80;82.90
75161;DHT22;63738;50.096;8.716;2022-12-07T17:44:59;5.90;82.90
75161;DHT22;63738;50.096;8.716;2022-12-07T17:47:24;5.90;83.10
75161;DHT22;63738;50.096;8.716;2022-12-07T17:49:50;6.00;82.90
75161;DHT22;63738;50.096;8.716;2022-12-07T17:52:16;6.00;83.10
75161;DHT22;63738;50.096;8.716;2022-12-07T17:55:00;5.90;82.80
75161;DHT22;63738;50.096;8.716;2022-12-07T17:57:26;5.80;83.00
75161;DHT22;63738;50.096;8.716;2022-12-07T17:59:51;5.90;83.00
75161;DHT22;63738;50.096;8.716;2022-12-07T18:02:19;5.70;83.00
75161;DHT22;63738;50.096;8.716;2022-12-07T18:04:45;5.80;83.30
75161;DHT22;63738;50.096;8.716;2022-12-07T18:07:12;5.80;83.00
75161;DHT22;63738;50.096;8.716;2022-12-07T18:09:38;5.70;83.10
75161;DHT22;63738;50.096;8.716;2022-12-07T18:12:04;5.60;83.00
75161;DHT22;63738;50.096;8.716;2022-12-07T18:14:30;5.50;83.00
75161;DHT22;63738;50.096;8.716;2022-12-07T18:16:56;5.30;83.10
75161;DHT22;63738;50.096;8.716;2022-12-07T18:19:21;5.40;83.30
75161;DHT22;63738;50.096;8.716;2022-12-07T18:21:47;5.40;83.50
75161;DHT22;63738;50.096;8.716;2022-12-07T18:24:14;5.50;83.40